Time;durP1;ratioP1;P1;durP2;ratioP2;P2;SDS_P1;SDS_P2;PMS_P1;PMS_P2;Temp;Humidity;BMP_temperature;BMP_pressure;BME280_temperature;BME280_humidity;BME280_pressure;Samples;Min_cycle;Max_cycle;Signal;HPM_P1;HPM_P2
2023/06/22 00:02:18;;;;;;;;;;;22.80;55.80;;;19.11;100.00;95433.97;4973774;28;20019;-49
2023/06/22 00:04:44;;;;;;;;;;;22.80;56.00;;;19.12;100.00;95429.38;4974797;28;19913;-51
2023/06/22 00:07:10;;;;;;;;;;;22.80;56.10;;;19.13;100.00;95437.13;4975370;28;20004;-52
2023/06/22 00:09:36;;;;;;;;;;;22.80;56.20;;;19.16;100.00;95435.72;4975052;28;19916;-55
2023/06/22 00:12:02;;;;;;;;;;;22.80;56.20;;;19.13;100.00;95439.06;4974846;28;19909;-50
2023/06/22 00:14:28;;;;;;;;;;;22.80;56.20;;;19.08;100.00;95428.41;4975994;28;20329;-54
2023/06/22 00:16:55;;;;;;;;;;;22.80;56.30;;;19.05;100.00;95427.16;4974165;28;19967;-56
2023/06/22 00:19:21;;;;;;;;;;;22.70;56.50;;;19.04;100.00;95427.50;4973715;28;20396;-52
2023/06/22 00:21:52;;;;;;;;;;;22.70;56.50;;;19.02;100.00;95424.31;4974538;28;19909;-56
2023/06/22 00:24:19;;;;;;;;;;;22.80;56.70;;;19.02;100.00;95430.53;4974040;28;19909;-56
2023/06/22 00:26:45;;;;;;;;;;;22.70;56.80;;;19.02;100.00;95425.13;4974631;28;19938;-53
2023/06/22 00:29:11;;;;;;;;;;;22.70;56.80;;;19.00;100.00;95434.66;4974760;28;20293;-54
2023/06/22 00:31:37;;;;;;;;;;;22.70;56.80;;;18.99;100.00;95425.75;4973484;28;19910;-55
2023/06/22 00:34:02;;;;;;;;;;;22.70;56.90;;;18.98;100.00;95429.56;4986080;28;19922;-55
2023/06/22 00:36:28;;;;;;;;;;;22.60;56.80;;;18.94;100.00;95420.53;4973913;28;19918;-53
2023/06/22 00:38:54;;;;;;;;;;;22.60;56.80;;;18.88;100.00;95422.59;4974508;28;19913;-56
2023/06/22 00:41:20;;;;;;;;;;;22.60;56.90;;;18.86;100.00;95421.31;4974397;28;19925;-55
2023/06/22 00:43:46;;;;;;;;;;;22.60;57.00;;;18.83;100.00;95425.47;4973661;28;19963;-52
2023/06/22 00:46:12;;;;;;;;;;;22.60;57.20;;;18.81;100.00;95429.63;4974060;28;19967;-54
2023/06/22 00:48:43;;;;;;;;;;;22.50;57.20;;;18.81;100.00;95424.22;4976967;28;19914;-51
2023/06/22 00:51:10;;;;;;;;;;;22.50;57.30;;;18.80;100.00;95428.00;4983701;28;19933;-49
2023/06/22 00:53:37;;;;;;;;;;;22.50;57.40;;;18.78;100.00;95430.25;4974057;28;20004;-51
2023/06/22 00:56:05;;;;;;;;;;;22.50;57.60;;;18.74;100.00;95432.81;4985205;28;19910;-56
2023/06/22 00:58:32;;;;;;;;;;;22.50;57.60;;;18.77;100.00;95431.34;4986699;28;19909;-49
2023/06/22 01:00:57;;;;;;;;;;;22.50;57.60;;;18.75;100.00;95433.59;4972929;28;19913;-56
2023/06/22 01:03:23;;;;;;;;;;;22.40;57.60;;;18.71;100.00;95431.50;4973896;28;19955;-56
2023/06/22 01:05:51;;;;;;;;;;;22.40;57.70;;;18.69;100.00;95439.09;4974139;28;20372;-52
2023/06/22 01:08:52;;;;;;;;;;;22.40;57.80;;;18.67;100.00;95435.94;4981809;28;19935;-56
2023/06/22 01:11:41;;;;;;;;;;;22.40;57.90;;;18.66;100.00;95447.06;4991903;28;19921;-51
2023/06/22 01:14:19;;;;;;;;;;;22.30;57.90;;;18.63;100.00;95443.09;5002815;28;19910;-51
2023/06/22 01:16:48;;;;;;;;;;;22.30;58.00;;;18.60;100.00;95454.50;5007938;28;20273;-55
2023/06/22 01:19:56;;;;;;;;;;;22.30;58.00;;;18.55;100.00;95465.47;4984368;28;19952;-49
2023/06/22 01:22:28;;;;;;;;;;;22.30;58.10;;;18.48;100.00;95470.53;4990120;28;19913;-49
2023/06/22 01:25:15;;;;;;;;;;;22.30;58.10;;;18.43;100.00;95474.19;4980953;28;19914;-50
2023/06/22 01:28:25;;;;;;;;;;;22.20;58.10;;;18.35;100.00;95483.06;4987945;28;19919;-51
2023/06/22 01:31:05;;;;;;;;;;;22.20;58.80;;;18.28;100.00;95488.13;4989743;28;19909;-56
2023/06/22 01:33:36;;;;;;;;;;;22.10;58.20;;;18.23;100.00;95485.59;5001227;28;20376;-50
2023/06/22 01:36:04;;;;;;;;;;;22.10;58.20;;;18.18;100.00;95496.53;5008057;28;20395;-52
2023/06/22 01:38:32;;;;;;;;;;;22.00;58.30;;;18.12;100.00;95492.41;4986045;28;19952;-54
2023/06/22 01:40:59;;;;;;;;;;;22.00;58.40;;;18.08;100.00;95494.13;5000680;28;20004;-52
2023/06/22 01:43:27;;;;;;;;;;;21.90;58.40;;;18.04;100.00;95491.25;4975571;28;20319;-53
2023/06/22 01:45:56;;;;;;;;;;;21.90;58.50;;;17.99;100.00;95486.81;4992550;28;20497;-51
2023/06/22 01:48:23;;;;;;;;;;;21.90;58.50;;;17.94;100.00;95488.88;5005601;28;20364;-53
2023/06/22 01:50:49;;;;;;;;;;;21.90;58.60;;;17.93;100.00;95480.00;4980986;28;20281;-51
2023/06/22 01:53:15;;;;;;;;;;;21.80;58.60;;;17.90;100.00;95474.44;4992852;28;19909;-49
2023/06/22 01:55:41;;;;;;;;;;;21.80;58.70;;;17.85;100.00;95475.38;4987496;28;19913;-53
2023/06/22 01:58:06;;;;;;;;;;;21.70;58.80;;;17.79;100.00;95487.38;4992818;28;19909;-48
2023/06/22 02:00:39;;;;;;;;;;;21.70;58.80;;;17.73;100.00;95492.09;4987900;28;19922;-56
2023/06/22 02:03:15;;;;;;;;;;;21.70;58.90;;;17.71;100.00;95496.22;4990979;28;19960;-50
2023/06/22 02:05:52;;;;;;;;;;;21.60;58.90;;;17.64;100.00;95491.25;4991573;28;19913;-51
2023/06/22 02:08:41;;;;;;;;;;;21.50;59.00;;;17.60;100.00;95490.31;4995510;28;19909;-54
2023/06/22 02:11:11;;;;;;;;;;;21.50;59.10;;;17.58;100.00;95485.25;5007307;28;19910;-49
2023/06/22 02:13:42;;;;;;;;;;;21.50;59.20;;;17.52;100.00;95483.00;5003277;28;19956;-51
2023/06/22 02:16:12;;;;;;;;;;;21.40;59.20;;;17.50;100.00;95485.19;5006857;28;19916;-49
2023/06/22 02:18:40;;;;;;;;;;;21.40;59.40;;;17.42;100.00;95481.34;4989164;28;19913;-50
2023/06/22 02:21:06;;;;;;;;;;;21.30;59.40;;;17.35;100.00;95484.50;4989080;28;19921;-51
2023/06/22 02:23:35;;;;;;;;;;;21.30;59.50;;;17.32;100.00;95489.72;4993829;28;19909;-59
2023/06/22 02:26:03;;;;;;;;;;;21.20;59.40;;;17.25;100.00;95482.06;4984214;28;19920;-55
2023/06/22 02:28:28;;;;;;;;;;;21.20;59.60;;;17.18;100.00;95484.44;4996183;28;19913;-53
2023/06/22 02:30:54;;;;;;;;;;;21.10;59.60;;;17.14;100.00;95479.94;4994126;28;19916;-55
2023/06/22 02:33:21;;;;;;;;;;;21.10;59.70;;;17.09;100.00;95481.69;4990383;28;19917;-55
2023/06/22 02:35:48;;;;;;;;;;;21.00;59.70;;;17.06;100.00;95470.75;4996279;28;19909;-52
2023/06/22 02:38:15;;;;;;;;;;;21.00;59.80;;;17.00;100.00;95470.06;4990108;28;20000;-56
2023/06/22 02:40:40;;;;;;;;;;;20.90;60.50;;;16.94;100.00;95467.81;4990840;28;20414;-50
2023/06/22 02:43:06;;;;;;;;;;;20.90;59.90;;;16.90;100.00;95466.84;4979938;28;19910;-50
2023/06/22 02:45:32;;;;;;;;;;;20.90;60.00;;;16.85;100.00;95468.53;4993411;28;19921;-50
2023/06/22 02:47:58;;;;;;;;;;;20.80;60.10;;;16.79;100.00;95474.34;4996020;28;19955;-50
2023/06/22 02:50:24;;;;;;;;;;;20.80;60.20;;;16.76;100.00;95472.28;4982259;28;19909;-48
2023/06/22 02:52:50;;;;;;;;;;;20.70;60.20;;;16.71;100.00;95486.63;4996050;28;19916;-49
2023/06/22 02:55:16;;;;;;;;;;;20.70;60.30;;;16.70;100.00;95478.84;4991310;28;20003;-51
2023/06/22 02:57:43;;;;;;;;;;;20.70;60.30;;;16.65;100.00;95477.88;4995976;28;20013;-49
2023/06/22 03:00:17;;;;;;;;;;;20.60;60.40;;;16.63;100.00;95482.75;4995823;28;19963;-51
2023/06/22 03:02:44;;;;;;;;;;;20.60;60.50;;;16.60;100.00;95461.06;4987982;28;19913;-50
2023/06/22 03:05:13;;;;;;;;;;;20.60;60.60;;;16.63;100.00;95472.00;4976326;28;19917;-50
2023/06/22 03:07:41;;;;;;;;;;;20.60;60.70;;;16.64;100.00;95470.13;4976225;28;20001;-49
2023/06/22 03:10:11;;;;;;;;;;;20.60;60.80;;;16.65;100.00;95471.72;4976518;28;20339;-54
2023/06/22 03:12:39;;;;;;;;;;;20.50;60.90;;;16.62;100.00;95458.88;4974787;28;20423;-51
2023/06/22 03:15:11;;;;;;;;;;;20.50;60.90;;;16.60;100.00;95466.44;4976151;28;19921;-53
2023/06/22 03:17:39;;;;;;;;;;;20.50;61.00;;;16.60;100.00;95472.63;4975787;28;20396;-49
2023/06/22 03:20:15;;;;;;;;;;;20.50;61.20;;;16.57;100.00;95459.78;4975484;28;19956;-53
2023/06/22 03:22:43;;;;;;;;;;;20.50;61.20;;;16.57;100.00;95453.63;4975771;28;20365;-54
2023/06/22 03:25:15;;;;;;;;;;;20.50;61.30;;;16.59;100.00;95471.03;4975244;28;20337;-55
2023/06/22 03:27:42;;;;;;;;;;;20.50;62.10;;;16.58;100.00;95471.34;4974595;28;19914;-49
2023/06/22 03:30:11;;;;;;;;;;;20.50;62.20;;;16.56;100.00;95468.97;4974640;28;19917;-55
2023/06/22 03:32:36;;;;;;;;;;;20.50;61.50;;;16.55;100.00;95453.94;4974339;28;20459;-53
2023/06/22 03:35:03;;;;;;;;;;;20.50;61.50;;;16.59;100.00;95457.59;4975639;28;20009;-55
2023/06/22 03:37:29;;;;;;;;;;;20.50;61.60;;;16.63;100.00;95450.50;4974643;28;19910;-53
2023/06/22 03:39:55;;;;;;;;;;;20.50;61.80;;;16.68;100.00;95460.34;4975729;28;19910;-53
2023/06/22 03:42:21;;;;;;;;;;;20.50;61.90;;;16.72;100.00;95464.00;4974845;28;19917;-53
2023/06/22 03:44:47;;;;;;;;;;;20.60;62.10;;;16.77;100.00;95460.44;4975390;28;20313;-52
2023/06/22 03:47:13;;;;;;;;;;;20.60;62.10;;;16.77;100.00;95453.16;4975449;28;20305;-54
2023/06/22 03:49:39;;;;;;;;;;;20.60;62.10;;;16.79;100.00;95460.91;4974894;28;19939;-53
2023/06/22 03:52:06;;;;;;;;;;;20.60;62.10;;;16.76;100.00;95459.63;4992935;28;19932;-54
2023/06/22 03:54:31;;;;;;;;;;;20.70;62.00;;;16.73;100.00;95446.75;4991562;28;19953;-53
2023/06/22 03:56:58;;;;;;;;;;;20.70;62.00;;;16.77;100.00;95452.38;4992853;28;20405;-50
2023/06/22 03:59:24;;;;;;;;;;;20.70;62.00;;;16.78;100.00;95437.81;4994798;28;19909;-49
2023/06/22 04:01:50;;;;;;;;;;;20.70;61.90;;;16.76;100.00;95432.72;4982671;28;20363;-49
2023/06/22 04:04:18;;;;;;;;;;;20.80;62.00;;;16.81;100.00;95426.44;4985940;28;19964;-50
2023/06/22 04:06:44;;;;;;;;;;;20.80;62.10;;;16.94;100.00;95430.16;4989461;28;20333;-54
2023/06/22 04:09:10;;;;;;;;;;;20.80;62.40;;;16.98;100.00;95423.03;4986132;28;19944;-52
2023/06/22 04:11:36;;;;;;;;;;;20.90;62.40;;;17.05;100.00;95437.66;4994735;28;19913;-51
2023/06/22 04:14:01;;;;;;;;;;;21.00;62.50;;;17.16;100.00;95440.06;4990668;28;20005;-51
2023/06/22 04:16:27;;;;;;;;;;;21.00;62.60;;;17.24;100.00;95439.34;4994254;28;19910;-50
2023/06/22 04:18:53;;;;;;;;;;;21.10;62.60;;;17.28;100.00;95430.31;4988892;28;19955;-55
2023/06/22 04:21:19;;;;;;;;;;;21.20;62.70;;;17.34;100.00;95439.84;4992008;28;20009;-51
2023/06/22 04:23:46;;;;;;;;;;;21.30;62.60;;;17.43;100.00;95447.16;4994394;28;19909;-52
2023/06/22 04:26:14;;;;;;;;;;;21.30;62.60;;;17.50;100.00;95444.81;4983017;28;20408;-50
2023/06/22 04:28:40;;;;;;;;;;;21.40;62.60;;;17.56;100.00;95440.88;4994347;28;19909;-51
2023/06/22 04:31:06;;;;;;;;;;;21.50;62.40;;;17.61;100.00;95434.53;5005487;28;19920;-49
2023/06/22 04:33:32;;;;;;;;;;;21.60;62.30;;;17.70;100.00;95441.53;4993103;23;19922;-44
2023/06/22 04:36:01;;;;;;;;;;;21.70;62.40;;;17.82;100.00;95438.28;4984011;28;19921;-46
2023/06/22 04:38:27;;;;;;;;;;;21.70;62.30;;;17.95;100.00;95442.72;4979736;28;19972;-46
2023/06/22 04:40:53;;;;;;;;;;;21.80;62.20;;;18.09;100.00;95442.59;4978580;28;19917;-48
2023/06/22 04:43:20;;;;;;;;;;;21.90;62.10;;;18.24;100.00;95439.44;4982735;28;19955;-48
2023/06/22 04:45:45;;;;;;;;;;;22.10;62.10;;;18.39;100.00;95437.38;4991894;28;20339;-48
2023/06/22 04:48:15;;;;;;;;;;;22.20;62.00;;;18.49;100.00;95423.59;4992859;28;19910;-46
2023/06/22 04:50:42;;;;;;;;;;;22.30;61.90;;;18.61;100.00;95429.09;4989610;28;19932;-46
2023/06/22 04:53:09;;;;;;;;;;;22.40;61.80;;;18.68;100.00;95434.06;4986168;28;20059;-51
2023/06/22 04:55:37;;;;;;;;;;;22.60;61.80;;;18.83;100.00;95428.16;4989772;28;19917;-45
2023/06/22 04:58:04;;;;;;;;;;;22.70;61.80;;;19.02;100.00;95424.31;4992883;28;20425;-47
2023/06/22 05:00:31;;;;;;;;;;;22.90;61.70;;;19.16;100.00;95424.91;4990301;28;19909;-50
2023/06/22 05:03:00;;;;;;;;;;;23.00;61.50;;;19.33;100.00;95424.03;4975772;28;20478;-45
2023/06/22 05:05:26;;;;;;;;;;;23.20;61.40;;;19.49;100.00;95427.00;4992440;28;19924;-44
2023/06/22 05:07:59;;;;;;;;;;;23.30;61.30;;;19.64;100.00;95429.19;4979649;28;19909;-45
2023/06/22 05:10:26;;;;;;;;;;;23.50;61.20;;;19.77;100.00;95430.06;4992611;28;19909;-45
2023/06/22 05:12:51;;;;;;;;;;;23.70;61.00;;;19.92;100.00;95426.78;4990028;28;19933;-45
2023/06/22 05:15:19;;;;;;;;;;;23.90;61.00;;;20.11;100.00;95415.53;4992000;28;19909;-47
2023/06/22 05:17:45;;;;;;;;;;;24.00;60.60;;;20.24;100.00;95411.00;4992381;28;19910;-49
2023/06/22 05:20:12;;;;;;;;;;;24.20;60.50;;;20.37;100.00;95428.06;4985286;28;19917;-45
2023/06/22 05:22:39;;;;;;;;;;;24.40;60.30;;;20.54;100.00;95420.63;4972319;28;20296;-45
2023/06/22 05:25:11;;;;;;;;;;;24.50;60.90;;;20.63;100.00;95414.38;4986519;28;20142;-46
2023/06/22 05:27:40;;;;;;;;;;;24.70;59.90;;;20.77;100.00;95410.22;4974974;28;19913;-44
2023/06/22 05:30:08;;;;;;;;;;;24.90;59.80;;;20.94;99.81;95398.44;4991907;28;19913;-44
2023/06/22 05:32:35;;;;;;;;;;;25.10;59.60;;;21.08;98.23;95405.47;4985592;28;19909;-44
2023/06/22 05:35:00;;;;;;;;;;;25.20;59.40;;;21.25;96.89;95418.81;4983841;28;19909;-45
2023/06/22 05:37:28;;;;;;;;;;;25.40;59.20;;;21.41;96.06;95408.94;4978180;28;19963;-48
2023/06/22 05:39:55;;;;;;;;;;;25.60;59.00;;;21.51;94.77;95410.41;4991989;28;19915;-44
2023/06/22 05:42:21;;;;;;;;;;;25.80;58.90;;;21.64;93.85;95416.59;4985662;28;19960;-44
2023/06/22 05:44:47;;;;;;;;;;;26.00;58.60;;;21.81;92.77;95424.53;4969341;28;19910;-44
2023/06/22 05:47:13;;;;;;;;;;;26.10;58.40;;;21.89;92.09;95420.88;4977550;28;19917;-43
2023/06/22 05:49:39;;;;;;;;;;;26.30;58.30;;;21.96;90.70;95428.44;5003252;28;20300;-45
2023/06/22 05:52:05;;;;;;;;;;;26.50;58.10;;;21.98;90.32;95434.31;4992363;28;19910;-44
2023/06/22 05:54:31;;;;;;;;;;;26.70;57.90;;;22.09;88.79;95431.91;4990073;28;20263;-44
2023/06/22 05:56:57;;;;;;;;;;;26.80;57.60;;;22.18;88.70;95419.84;5002794;28;20407;-45
2023/06/22 05:59:23;;;;;;;;;;;27.00;57.40;;;22.30;86.99;95429.09;4996064;28;19917;-44
2023/06/22 06:01:50;;;;;;;;;;;27.10;57.10;;;22.36;87.03;95414.94;4984105;28;19917;-45
2023/06/22 06:04:18;;;;;;;;;;;27.30;57.00;;;22.44;87.06;95421.38;4995490;28;20348;-44
2023/06/22 06:06:44;;;;;;;;;;;27.40;56.70;;;22.61;85.96;95417.56;4990657;28;20389;-47
2023/06/22 06:09:11;;;;;;;;;;;27.50;56.50;;;22.80;84.96;95419.63;4965485;28;20007;-43
2023/06/22 06:11:37;;;;;;;;;;;27.70;56.30;;;23.00;83.59;95417.88;4991197;28;19909;-45
2023/06/22 06:14:03;;;;;;;;;;;27.80;56.20;;;23.22;82.82;95430.06;4984788;28;20335;-44
2023/06/22 06:16:29;;;;;;;;;;;28.00;56.10;;;23.31;80.41;95428.75;4995453;28;19909;-45
2023/06/22 06:18:55;;;;;;;;;;;28.20;55.80;;;23.41;80.39;95424.75;4990527;28;20004;-45
2023/06/22 06:21:22;;;;;;;;;;;28.40;55.60;;;23.64;79.60;95421.41;4990668;28;19909;-46
2023/06/22 06:23:48;;;;;;;;;;;28.60;55.40;;;23.65;78.44;95429.22;4995026;28;20000;-45
2023/06/22 06:26:16;;;;;;;;;;;28.80;55.00;;;23.76;79.81;95433.00;4981800;28;20067;-47
2023/06/22 06:28:43;;;;;;;;;;;28.90;54.80;;;24.01;78.32;95432.81;4995488;28;20283;-49
2023/06/22 06:31:09;;;;;;;;;;;29.00;54.60;;;24.03;78.13;95435.94;4990290;28;19910;-49
2023/06/22 06:33:36;;;;;;;;;;;29.20;54.30;;;24.00;77.16;95436.66;4986926;28;19917;-45
2023/06/22 06:36:03;;;;;;;;;;;29.40;54.00;;;24.18;77.07;95442.50;4982157;28;19909;-47
2023/06/22 06:38:30;;;;;;;;;;;29.60;53.90;;;24.43;76.44;95446.56;4999978;28;19909;-47
2023/06/22 06:40:56;;;;;;;;;;;29.70;53.60;;;24.45;75.42;95444.28;4995109;28;20016;-46
2023/06/22 06:43:23;;;;;;;;;;;29.80;53.50;;;24.53;75.04;95461.56;4977912;28;19916;-50
2023/06/22 06:45:49;;;;;;;;;;;29.90;53.20;;;24.48;74.74;95456.41;4989606;28;19917;-50
2023/06/22 06:48:15;;;;;;;;;;;30.00;53.00;;;24.70;74.06;95457.63;5010402;28;19910;-45
2023/06/22 06:50:40;;;;;;;;;;;30.20;52.80;;;24.80;73.03;95464.44;4990173;28;19909;-47
2023/06/22 06:53:06;;;;;;;;;;;30.30;52.60;;;24.95;72.10;95460.84;4994502;28;20017;-49
2023/06/22 06:55:35;;;;;;;;;;;30.40;52.30;;;25.13;72.90;95455.75;4985870;28;19944;-46
2023/06/22 06:58:02;;;;;;;;;;;30.60;52.30;;;25.33;71.97;95453.81;4995056;28;19932;-47
2023/06/22 07:00:28;;;;;;;;;;;30.70;52.00;;;25.48;71.15;95452.09;4993726;28;19913;-47
2023/06/22 07:02:54;;;;;;;;;;;31.00;51.80;;;25.81;69.32;95437.88;4983114;28;19917;-51
2023/06/22 07:05:20;;;;;;;;;;;31.20;51.80;;;25.89;68.46;95445.03;4994575;28;20382;-44
2023/06/22 07:07:45;;;;;;;;;;;31.40;51.30;;;26.10;68.07;95443.75;4990063;28;19913;-46
2023/06/22 07:10:11;;;;;;;;;;;31.70;51.10;;;26.25;66.46;95442.81;4994014;28;20269;-44
2023/06/22 07:12:37;;;;;;;;;;;32.00;50.70;;;26.52;65.65;95443.59;4988187;28;19917;-46
2023/06/22 07:15:07;;;;;;;;;;;32.30;50.30;;;26.78;64.26;95448.22;4988189;28;20039;-42
2023/06/22 07:17:34;;;;;;;;;;;32.70;49.90;;;26.37;66.24;95461.69;4994644;28;19956;-46
2023/06/22 07:20:01;;;;;;;;;;;32.90;49.60;;;26.55;65.82;95472.91;4982551;28;19910;-48
2023/06/22 07:22:27;;;;;;;;;;;32.90;49.50;;;26.63;64.53;95481.97;4994606;28;19913;-45
2023/06/22 07:24:53;;;;;;;;;;;32.90;49.40;;;26.77;64.61;95502.06;4990890;28;19910;-44
2023/06/22 07:27:19;;;;;;;;;;;32.80;49.40;;;26.95;64.57;95524.16;4994356;28;19910;-48
2023/06/22 07:29:46;;;;;;;;;;;32.80;49.40;;;26.86;63.86;95547.47;4994399;28;20389;-44
2023/06/22 07:32:12;;;;;;;;;;;32.70;49.40;;;26.30;67.32;95568.06;4981255;28;19910;-44
2023/06/22 07:34:38;;;;;;;;;;;32.50;48.90;;;26.02;68.69;95588.28;4986964;28;19940;-45
2023/06/22 07:37:04;;;;;;;;;;;32.20;48.80;;;25.76;69.52;95615.44;4976931;28;20385;-46
2023/06/22 07:39:30;;;;;;;;;;;31.90;48.90;;;25.37;70.65;95610.81;4989257;28;19909;-51
2023/06/22 07:41:56;;;;;;;;;;;31.60;48.80;;;25.15;70.79;95592.44;4989812;28;19944;-43
2023/06/22 07:44:22;;;;;;;;;;;31.20;48.90;;;24.91;72.41;95635.16;4988636;28;19920;-43
2023/06/22 07:46:47;;;;;;;;;;;31.00;49.00;;;24.26;75.05;95650.28;4993424;28;19913;-44
2023/06/22 07:49:13;;;;;;;;;;;30.70;49.00;;;24.18;74.80;95603.81;4987920;28;19910;-43
2023/06/22 07:51:39;;;;;;;;;;;30.40;49.00;;;24.20;74.85;95614.38;5008972;28;19913;-44
2023/06/22 07:54:05;;;;;;;;;;;30.20;49.20;;;24.07;75.92;95605.50;4993358;28;19963;-44
2023/06/22 07:56:30;;;;;;;;;;;30.10;49.30;;;24.36;75.60;95595.31;4983908;28;19916;-46
2023/06/22 07:58:58;;;;;;;;;;;30.10;49.50;;;24.39;74.37;95603.56;4993880;28;20008;-45
2023/06/22 08:01:24;;;;;;;;;;;30.20;49.50;;;24.82;73.53;95598.31;4999275;28;19910;-45
2023/06/22 08:03:51;;;;;;;;;;;30.40;49.50;;;25.29;70.87;95576.41;4988914;28;19937;-44
2023/06/22 08:06:16;;;;;;;;;;;30.80;49.50;;;25.84;68.63;95592.63;4993593;28;19913;-44
2023/06/22 08:08:42;;;;;;;;;;;31.30;49.30;;;26.23;66.60;95617.91;4989830;28;19916;-44
2023/06/22 08:11:09;;;;;;;;;;;31.70;48.90;;;26.48;65.65;95598.38;4993489;28;20391;-46
2023/06/22 08:13:35;;;;;;;;;;;32.20;48.50;;;26.94;62.56;95590.09;4999302;28;19910;-44
2023/06/22 08:16:01;;;;;;;;;;;32.70;48.20;;;27.21;62.08;95590.88;4993394;28;19916;-45
2023/06/22 08:18:28;;;;;;;;;;;33.30;47.70;;;27.56;60.77;95595.97;4993036;28;20436;-47
2023/06/22 08:20:54;;;;;;;;;;;33.80;47.30;;;27.97;58.97;95601.53;4970931;28;20376;-44
2023/06/22 08:23:20;;;;;;;;;;;34.20;47.00;;;28.26;56.49;95593.56;4973127;28;20490;-45
2023/06/22 08:25:47;;;;;;;;;;;34.50;47.30;;;28.41;55.89;95584.31;4984353;28;19918;-43
2023/06/22 08:28:13;;;;;;;;;;;34.80;46.40;;;27.72;57.76;95560.19;4969443;28;19913;-47
2023/06/22 08:30:39;;;;;;;;;;;35.20;45.90;;;28.04;60.34;95554.25;4971540;28;19909;-46
2023/06/22 08:33:05;;;;;;;;;;;35.30;45.60;;;28.56;58.77;95544.91;4973009;28;20037;-45
2023/06/22 08:35:31;;;;;;;;;;;35.50;45.20;;;29.13;55.77;95554.63;4972606;28;20312;-45
2023/06/22 08:37:57;;;;;;;;;;;35.80;45.10;;;29.65;53.62;95556.03;4988218;28;20364;-45
2023/06/22 08:40:24;;;;;;;;;;;36.20;44.90;;;30.14;53.69;95568.25;4974409;28;19914;-47
2023/06/22 08:42:50;;;;;;;;;;;36.50;44.60;;;30.24;51.61;95576.91;4972314;28;20012;-50
2023/06/22 08:45:16;;;;;;;;;;;36.70;44.20;;;30.50;50.48;95564.75;4973608;28;19965;-48
2023/06/22 08:47:42;;;;;;;;;;;36.80;44.00;;;30.39;50.12;95568.28;4973328;28;20277;-43
2023/06/22 08:50:10;;;;;;;;;;;36.90;43.90;;;30.40;50.20;95563.59;4971111;28;19989;-47
2023/06/22 08:52:37;;;;;;;;;;;37.00;43.60;;;30.58;50.58;95564.31;4973222;28;20007;-44
2023/06/22 08:55:04;;;;;;;;;;;37.10;43.20;;;30.69;50.97;95558.81;4971826;28;19932;-45
2023/06/22 08:57:32;;;;;;;;;;;37.20;42.90;;;31.03;49.88;95561.91;4973080;28;19910;-51
2023/06/22 08:59:59;;;;;;;;;;;37.40;42.70;;;31.29;48.82;95565.34;4973459;28;20422;-44
2023/06/22 09:02:30;;;;;;;;;;;37.60;42.30;;;31.25;47.32;95550.84;4972134;28;19909;-44
2023/06/22 09:04:57;;;;;;;;;;;37.80;41.80;;;31.02;48.52;95548.56;4972889;28;20380;-44
2023/06/22 09:07:24;;;;;;;;;;;37.80;41.10;;;31.24;47.70;95547.28;4984047;28;20312;-44
2023/06/22 09:09:50;;;;;;;;;;;37.70;41.20;;;31.13;47.34;95541.06;4965136;28;20270;-45
2023/06/22 09:12:19;;;;;;;;;;;37.70;41.30;;;31.15;47.50;95541.44;4972695;28;20004;-44
2023/06/22 09:14:46;;;;;;;;;;;37.70;41.20;;;31.10;47.45;95539.09;4982623;28;19910;-47
2023/06/22 09:17:13;;;;;;;;;;;37.80;41.30;;;30.58;49.63;95539.59;4971627;28;20327;-46
2023/06/22 09:19:39;;;;;;;;;;;37.90;41.10;;;30.71;50.70;95539.94;4971998;28;19909;-45
2023/06/22 09:22:06;;;;;;;;;;;38.00;40.90;;;31.05;49.54;95526.53;4972432;28;19909;-44
2023/06/22 09:24:32;;;;;;;;;;;38.30;40.60;;;31.54;48.28;95524.00;4971493;28;19909;-51
2023/06/22 09:26:58;;;;;;;;;;;38.50;40.40;;;31.67;48.78;95525.09;4972652;28;19960;-44
2023/06/22 09:29:24;;;;;;;;;;;38.70;40.10;;;31.95;47.97;95515.09;4972670;28;19953;-45
2023/06/22 09:31:50;;;;;;;;;;;38.90;39.90;;;31.95;46.56;95510.38;4978745;28;20327;-46
2023/06/22 09:34:20;;;;;;;;;;;39.10;39.80;;;32.02;46.23;95512.28;4972159;28;20023;-44
2023/06/22 09:36:48;;;;;;;;;;;39.30;39.60;;;32.32;46.15;95506.13;4971718;28;19917;-44
2023/06/22 09:39:14;;;;;;;;;;;39.40;39.40;;;32.71;45.71;95507.75;4968911;28;19914;-45
2023/06/22 09:41:40;;;;;;;;;;;39.60;39.30;;;33.28;44.61;95503.53;4972072;28;20287;-44
2023/06/22 09:44:06;;;;;;;;;;;39.80;39.30;;;33.82;44.68;95496.13;4970786;28;19924;-46
2023/06/22 09:46:32;;;;;;;;;;;40.10;39.20;;;33.40;44.41;95501.00;4972187;28;19921;-44
2023/06/22 09:48:57;;;;;;;;;;;40.40;38.90;;;33.85;43.32;95495.28;4986327;28;19968;-45
2023/06/22 09:51:24;;;;;;;;;;;40.70;38.70;;;34.19;41.51;95493.56;4971807;28;19910;-45
2023/06/22 09:53:51;;;;;;;;;;;41.00;38.20;;;34.47;40.27;95487.56;4971858;28;19914;-46
2023/06/22 09:56:17;;;;;;;;;;;41.00;37.90;;;34.18;40.64;95492.03;4970981;28;19910;-45
2023/06/22 09:58:44;;;;;;;;;;;40.90;37.50;;;33.51;40.52;95476.06;4971634;28;19932;-46
2023/06/22 10:01:10;;;;;;;;;;;40.80;36.90;;;33.58;40.92;95473.19;4986905;28;19910;-49
2023/06/22 10:03:37;;;;;;;;;;;40.60;36.90;;;33.77;40.83;95470.94;4971979;28;19953;-45
2023/06/22 10:06:03;;;;;;;;;;;40.40;37.00;;;33.31;40.73;95442.78;4972365;28;19960;-46
2023/06/22 10:08:29;;;;;;;;;;;40.40;37.00;;;33.72;40.33;95441.03;4968103;28;19917;-45
2023/06/22 10:10:55;;;;;;;;;;;40.40;37.10;;;33.83;39.54;95449.94;4972315;28;19910;-46
2023/06/22 10:13:20;;;;;;;;;;;40.50;37.00;;;33.91;39.81;95453.34;4970498;28;19917;-47
2023/06/22 10:15:51;;;;;;;;;;;40.60;36.80;;;34.03;40.49;95453.56;4972086;28;19916;-45
2023/06/22 10:18:17;;;;;;;;;;;40.70;36.80;;;33.89;37.53;95450.25;4972109;28;20368;-45
2023/06/22 10:20:44;;;;;;;;;;;40.70;36.50;;;33.85;39.81;95439.25;4971178;28;19964;-45
2023/06/22 10:23:10;;;;;;;;;;;40.50;36.30;;;33.81;38.29;95435.75;4971359;28;19916;-46
2023/06/22 10:25:35;;;;;;;;;;;40.40;36.40;;;33.69;38.61;95433.59;4970986;28;19917;-45
2023/06/22 10:28:01;;;;;;;;;;;40.30;36.40;;;33.44;39.55;95428.41;4971981;28;19914;-45
2023/06/22 10:30:28;;;;;;;;;;;40.10;36.40;;;33.50;41.50;95430.34;4971547;28;19920;-48
2023/06/22 10:32:54;;;;;;;;;;;39.90;36.40;;;33.65;42.18;95430.09;4971421;28;20335;-47
2023/06/22 10:35:20;;;;;;;;;;;39.90;36.60;;;33.66;42.62;95435.22;4972042;28;19917;-45
2023/06/22 10:37:48;;;;;;;;;;;39.90;36.70;;;33.69;43.09;95439.09;4968823;28;19914;-46
2023/06/22 10:40:16;;;;;;;;;;;39.90;36.70;;;33.72;38.80;95428.03;4978345;28;19916;-47
2023/06/22 10:42:43;;;;;;;;;;;39.90;36.60;;;33.63;43.34;95427.78;4976075;28;20012;-48
2023/06/22 10:45:09;;;;;;;;;;;39.80;36.30;;;33.67;38.72;95422.97;4974373;28;19914;-46
2023/06/22 10:47:35;;;;;;;;;;;39.90;36.40;;;33.82;43.37;95426.28;4987547;28;19914;-48
2023/06/22 10:50:03;;;;;;;;;;;39.90;36.20;;;33.75;37.78;95427.19;4974215;28;19923;-46
2023/06/22 10:52:29;;;;;;;;;;;40.00;36.20;;;33.77;38.89;95421.25;4975311;28;19952;-47
2023/06/22 10:54:54;;;;;;;;;;;40.10;36.10;;;33.75;38.92;95427.19;4973837;28;19956;-47
2023/06/22 10:57:21;;;;;;;;;;;40.30;35.90;;;33.98;38.85;95426.41;4987819;28;19913;-46
2023/06/22 10:59:47;;;;;;;;;;;40.50;35.70;;;34.18;37.41;95431.22;4975334;28;20357;-46
2023/06/22 11:02:13;;;;;;;;;;;40.60;35.50;;;34.43;37.99;95441.84;4975138;28;20000;-48
2023/06/22 11:04:38;;;;;;;;;;;40.60;35.20;;;34.50;36.63;95438.94;4970091;28;19913;-48
2023/06/22 11:07:05;;;;;;;;;;;40.90;35.10;;;34.72;36.28;95442.88;4973769;28;20372;-49
2023/06/22 11:09:31;;;;;;;;;;;41.20;34.90;;;34.92;36.56;95442.88;4974567;28;20367;-51
2023/06/22 11:11:58;;;;;;;;;;;41.40;34.80;;;35.00;35.45;95452.56;4976313;28;19968;-46
2023/06/22 11:14:25;;;;;;;;;;;41.40;34.60;;;34.95;36.08;95450.31;4978263;28;20391;-46
2023/06/22 11:16:51;;;;;;;;;;;41.40;34.50;;;34.92;37.56;95458.69;4974837;28;20319;-47